Aviation Digital Data Service (ADDS)

Output produced by METARs form (0616 UTC 26 November 2014)
found at http://aviationweather.gov/adds/metars/
 
KAEX 260520Z 2606/2706 VRB03KT P6SM SKC 
     FM261500 22010KT P6SM SKC 
     FM261900 27012G18KT P6SM SKC 
     FM270000 30005KT P6SM SKC